Airfield :
LOGIN :

Register | Disclaimer

   EN    FR    IT 

 










Legend :    VFR   Marginal VFR   IFR   Intensive IFR   Very Intensive IFR
Visi :
Ceiling :
>= 8 km
>= 3000ft
5 to 8 km
1000 to 3000 ft
1500m to 5 km
500 to 1000 ft
800 to 1500m
200 to 500 ft
< 800m
< 200 ft
Symbols :   Thunderstorms  Fog  Heavy snow  Heavy precipitations  Wind > 20 kt
SIGMETs :     Misc.  Thunderstorms  Icing  Turbulence  Mountain Waves  Volcanic Ashes






- Airport Elevation : 53 ft
- IATA code : AGP


LEMG - Malaga

CURRENT METAR :
  • 040430Z 30008KT CAVOK 21/17 Q1017 NOSIG

EXPIRED METARs :
  • 040330Z VRB01KT CAVOK 21/18 Q1017 NOSIG
  • 040300Z 28005KT 150V300 CAVOK 21/17 Q1017 NOSIG
  • 040230Z 30005KT CAVOK 20/17 Q1017 NOSIG
  • 040200Z 00000KT CAVOK 20/18 Q1017 NOSIG

TAF TAF LEMG
Valid from the 04 at 00:00 until the 05 at 00:00 UTC


032300Z 0400/0424 VRB02KT CAVOK TX30/0414Z TN21/0404Z
BECMG 0400/0402 29006KT
BECMG 0408/0410 VRB02KT
BECMG 0411/0413 16008KT



MET'MAP, your aeronautical weather chart ! - Copyright ORBIFLY December 2007 - Disclaimer

ORBIFLY MET'MAP TEAM :

Programming & Development : Alexandra Zaïnal
Original concept : Baudouin d'Aumeries
Technical & hardware support : Manuel Goepfert
Assistance : Marc-Olivier Méhu




SOURCES & CREDITS :

   NOAA